Terminal Aerodrome Forecast
Issued by NWS Sioux Falls, SD

Home | Current Version | Previous Version | Text Only | Print | Product List | Glossary On
Versions: 1 2 3 4 5 6 7 8 9 10 11 12 13 14
000
FTUS43 KFSD 142300
TAFSUX
TAF
KSUX 142326Z 1500/1524 35013KT P6SM BKN070
     FM150200 36008KT P6SM SCT060
     FM150500 VRB03KT P6SM SKC
     FM151500 18008KT P6SM FEW080
     FM151900 17014G21KT P6SM SCT150=

USA.gov is the U.S. government's official web portal to all federal, state and local government web resources and services.